sensor_id;sensor_type;location;lat;lon;timestamp;P1;durP1;ratioP1;P2;durP2;ratioP2
78013;SDS011;67222;50.182;8.734;2023-08-21T04:30:22;9.93;;;7.30;;
78013;SDS011;67222;50.182;8.734;2023-08-21T04:32:48;12.52;;;6.88;;
78013;SDS011;67222;50.182;8.734;2023-08-21T04:35:13;9.17;;;7.00;;
78013;SDS011;67222;50.182;8.734;2023-08-21T04:37:42;10.40;;;7.68;;
78013;SDS011;67222;50.182;8.734;2023-08-21T04:40:09;11.65;;;7.82;;
78013;SDS011;67222;50.182;8.734;2023-08-21T04:42:35;11.27;;;7.90;;
78013;SDS011;67222;50.182;8.734;2023-08-21T04:45:00;9.80;;;7.27;;
78013;SDS011;67222;50.182;8.734;2023-08-21T04:47:27;10.25;;;7.47;;
78013;SDS011;67222;50.182;8.734;2023-08-21T04:49:53;11.13;;;8.07;;
78013;SDS011;67222;50.182;8.734;2023-08-21T04:52:20;11.73;;;7.95;;
78013;SDS011;67222;50.182;8.734;2023-08-21T04:54:47;10.35;;;7.32;;
78013;SDS011;67222;50.182;8.734;2023-08-21T04:57:14;11.52;;;6.95;;
78013;SDS011;67222;50.182;8.734;2023-08-21T04:59:39;10.93;;;7.32;;
78013;SDS011;67222;50.182;8.734;2023-08-21T05:02:05;11.32;;;7.18;;
78013;SDS011;67222;50.182;8.734;2023-08-21T05:04:30;10.35;;;7.50;;
78013;SDS011;67222;50.182;8.734;2023-08-21T05:06:55;10.07;;;6.60;;
78013;SDS011;67222;50.182;8.734;2023-08-21T05:09:21;10.73;;;7.17;;
78013;SDS011;67222;50.182;8.734;2023-08-21T05:11:46;10.13;;;7.47;;
78013;SDS011;67222;50.182;8.734;2023-08-21T05:14:11;9.57;;;6.73;;
78013;SDS011;67222;50.182;8.734;2023-08-21T05:16:37;9.37;;;7.03;;
78013;SDS011;67222;50.182;8.734;2023-08-21T05:19:02;9.40;;;6.37;;
78013;SDS011;67222;50.182;8.734;2023-08-21T05:21:27;10.73;;;6.77;;
78013;SDS011;67222;50.182;8.734;2023-08-21T05:23:53;14.30;;;7.43;;
78013;SDS011;67222;50.182;8.734;2023-08-21T05:26:18;8.83;;;6.43;;
78013;SDS011;67222;50.182;8.734;2023-08-21T05:28:44;11.32;;;7.03;;
78013;SDS011;67222;50.182;8.734;2023-08-21T05:31:10;9.90;;;6.63;;
78013;SDS011;67222;50.182;8.734;2023-08-21T05:33:35;9.67;;;7.07;;
78013;SDS011;67222;50.182;8.734;2023-08-21T05:36:00;11.80;;;6.60;;
78013;SDS011;67222;50.182;8.734;2023-08-21T05:38:26;10.23;;;6.88;;
78013;SDS011;67222;50.182;8.734;2023-08-21T05:40:51;9.55;;;6.63;;
78013;SDS011;67222;50.182;8.734;2023-08-21T05:43:16;10.40;;;6.97;;
78013;SDS011;67222;50.182;8.734;2023-08-21T05:45:42;10.15;;;7.07;;
78013;SDS011;67222;50.182;8.734;2023-08-21T05:48:08;9.68;;;7.00;;
78013;SDS011;67222;50.182;8.734;2023-08-21T05:50:33;9.77;;;7.03;;
78013;SDS011;67222;50.182;8.734;2023-08-21T05:52:58;10.50;;;6.97;;
78013;SDS011;67222;50.182;8.734;2023-08-21T05:55:26;10.02;;;6.53;;
78013;SDS011;67222;50.182;8.734;2023-08-21T05:57:52;9.70;;;6.15;;
78013;SDS011;67222;50.182;8.734;2023-08-21T06:00:17;10.88;;;6.75;;
78013;SDS011;67222;50.182;8.734;2023-08-21T06:02:43;10.10;;;6.72;;
78013;SDS011;67222;50.182;8.734;2023-08-21T06:05:08;9.02;;;6.70;;
78013;SDS011;67222;50.182;8.734;2023-08-21T06:07:34;10.00;;;6.20;;
78013;SDS011;67222;50.182;8.734;2023-08-21T06:09:59;10.02;;;6.38;;
78013;SDS011;67222;50.182;8.734;2023-08-21T06:12:24;8.93;;;6.10;;
78013;SDS011;67222;50.182;8.734;2023-08-21T06:14:50;8.70;;;6.33;;
78013;SDS011;67222;50.182;8.734;2023-08-21T06:17:15;12.15;;;6.40;;
78013;SDS011;67222;50.182;8.734;2023-08-21T06:19:40;9.30;;;6.10;;
78013;SDS011;67222;50.182;8.734;2023-08-21T06:22:06;10.37;;;6.43;;
78013;SDS011;67222;50.182;8.734;2023-08-21T06:24:32;9.65;;;6.63;;
78013;SDS011;67222;50.182;8.734;2023-08-21T06:26:57;9.57;;;6.30;;
78013;SDS011;67222;50.182;8.734;2023-08-21T06:29:23;9.70;;;6.63;;
78013;SDS011;67222;50.182;8.734;2023-08-21T06:31:49;9.63;;;6.70;;
78013;SDS011;67222;50.182;8.734;2023-08-21T06:34:14;9.07;;;6.60;;
78013;SDS011;67222;50.182;8.734;2023-08-21T06:36:40;10.23;;;6.53;;
78013;SDS011;67222;50.182;8.734;2023-08-21T06:39:05;10.48;;;6.60;;
78013;SDS011;67222;50.182;8.734;2023-08-21T06:41:31;9.23;;;5.85;;
78013;SDS011;67222;50.182;8.734;2023-08-21T06:43:56;10.00;;;6.25;;
78013;SDS011;67222;50.182;8.734;2023-08-21T06:46:23;8.32;;;5.90;;
78013;SDS011;67222;50.182;8.734;2023-08-21T06:48:48;9.27;;;6.30;;
78013;SDS011;67222;50.182;8.734;2023-08-21T06:51:15;9.23;;;5.95;;
78013;SDS011;67222;50.182;8.734;2023-08-21T06:53:40;8.50;;;6.03;;
78013;SDS011;67222;50.182;8.734;2023-08-21T06:56:06;8.30;;;6.25;;
78013;SDS011;67222;50.182;8.734;2023-08-21T06:58:32;9.60;;;6.15;;
78013;SDS011;67222;50.182;8.734;2023-08-21T07:00:57;7.63;;;6.15;;
78013;SDS011;67222;50.182;8.734;2023-08-21T07:03:22;9.77;;;5.83;;
78013;SDS011;67222;50.182;8.734;2023-08-21T07:05:54;11.45;;;6.85;;
78013;SDS011;67222;50.182;8.734;2023-08-21T07:08:21;7.90;;;5.95;;
78013;SDS011;67222;50.182;8.734;2023-08-21T07:10:46;8.30;;;6.22;;
78013;SDS011;67222;50.182;8.734;2023-08-21T07:13:12;9.05;;;5.75;;
78013;SDS011;67222;50.182;8.734;2023-08-21T07:15:37;7.90;;;6.10;;
78013;SDS011;67222;50.182;8.734;2023-08-21T07:18:02;8.33;;;5.73;;
78013;SDS011;67222;50.182;8.734;2023-08-21T07:20:28;10.80;;;6.25;;
78013;SDS011;67222;50.182;8.734;2023-08-21T07:22:53;8.77;;;6.23;;
78013;SDS011;67222;50.182;8.734;2023-08-21T07:25:18;8.57;;;6.20;;
78013;SDS011;67222;50.182;8.734;2023-08-21T07:27:44;9.00;;;5.90;;
78013;SDS011;67222;50.182;8.734;2023-08-21T07:30:09;9.35;;;6.32;;
78013;SDS011;67222;50.182;8.734;2023-08-21T07:32:35;8.88;;;6.05;;
78013;SDS011;67222;50.182;8.734;2023-08-21T07:35:01;9.17;;;5.90;;
78013;SDS011;67222;50.182;8.734;2023-08-21T07:37:26;9.47;;;6.10;;
78013;SDS011;67222;50.182;8.734;2023-08-21T07:39:52;7.88;;;6.15;;
78013;SDS011;67222;50.182;8.734;2023-08-21T07:42:17;9.48;;;6.55;;
78013;SDS011;67222;50.182;8.734;2023-08-21T07:44:44;7.85;;;5.97;;
78013;SDS011;67222;50.182;8.734;2023-08-21T07:47:10;7.70;;;6.35;;
78013;SDS011;67222;50.182;8.734;2023-08-21T07:49:35;9.67;;;6.17;;
78013;SDS011;67222;50.182;8.734;2023-08-21T07:52:02;7.87;;;5.97;;
78013;SDS011;67222;50.182;8.734;2023-08-21T07:54:28;8.98;;;6.55;;
78013;SDS011;67222;50.182;8.734;2023-08-21T07:56:53;10.75;;;6.60;;
78013;SDS011;67222;50.182;8.734;2023-08-21T07:59:18;7.83;;;6.13;;
78013;SDS011;67222;50.182;8.734;2023-08-21T08:01:44;8.90;;;6.68;;
78013;SDS011;67222;50.182;8.734;2023-08-21T08:04:10;9.80;;;6.45;;
78013;SDS011;67222;50.182;8.734;2023-08-21T08:06:36;9.50;;;6.75;;
78013;SDS011;67222;50.182;8.734;2023-08-21T08:09:01;9.30;;;6.50;;
78013;SDS011;67222;50.182;8.734;2023-08-21T08:11:28;10.20;;;6.53;;
78013;SDS011;67222;50.182;8.734;2023-08-21T08:13:54;8.73;;;6.53;;
78013;SDS011;67222;50.182;8.734;2023-08-21T08:16:20;8.50;;;6.45;;
78013;SDS011;67222;50.182;8.734;2023-08-21T08:18:46;10.65;;;6.70;;
78013;SDS011;67222;50.182;8.734;2023-08-21T08:21:11;9.48;;;6.50;;
78013;SDS011;67222;50.182;8.734;2023-08-21T08:23:36;9.15;;;6.65;;
78013;SDS011;67222;50.182;8.734;2023-08-21T08:26:02;10.07;;;6.43;;
78013;SDS011;67222;50.182;8.734;2023-08-21T08:28:27;8.88;;;6.22;;
78013;SDS011;67222;50.182;8.734;2023-08-21T08:30:53;9.05;;;6.63;;
78013;SDS011;67222;50.182;8.734;2023-08-21T08:33:18;9.77;;;7.03;;
78013;SDS011;67222;50.182;8.734;2023-08-21T08:35:43;9.03;;;6.77;;
78013;SDS011;67222;50.182;8.734;2023-08-21T08:38:09;9.37;;;6.60;;
78013;SDS011;67222;50.182;8.734;2023-08-21T08:40:35;14.90;;;6.90;;
78013;SDS011;67222;50.182;8.734;2023-08-21T08:43:06;23.10;;;7.38;;
78013;SDS011;67222;50.182;8.734;2023-08-21T08:45:32;10.20;;;6.63;;
78013;SDS011;67222;50.182;8.734;2023-08-21T08:47:59;10.27;;;7.05;;
78013;SDS011;67222;50.182;8.734;2023-08-21T08:50:27;10.43;;;6.68;;
78013;SDS011;67222;50.182;8.734;2023-08-21T08:52:54;9.98;;;6.05;;
78013;SDS011;67222;50.182;8.734;2023-08-21T08:55:20;9.52;;;6.43;;
78013;SDS011;67222;50.182;8.734;2023-08-21T08:57:46;9.38;;;6.97;;
78013;SDS011;67222;50.182;8.734;2023-08-21T09:00:11;10.13;;;6.77;;
78013;SDS011;67222;50.182;8.734;2023-08-21T09:02:37;8.50;;;6.78;;
78013;SDS011;67222;50.182;8.734;2023-08-21T09:05:02;9.95;;;7.03;;
78013;SDS011;67222;50.182;8.734;2023-08-21T09:07:29;9.73;;;7.30;;
78013;SDS011;67222;50.182;8.734;2023-08-21T09:09:55;9.38;;;6.55;;
78013;SDS011;67222;50.182;8.734;2023-08-21T09:12:20;8.38;;;6.18;;
78013;SDS011;67222;50.182;8.734;2023-08-21T09:14:46;10.40;;;6.75;;
78013;SDS011;67222;50.182;8.734;2023-08-21T09:17:12;8.90;;;6.68;;
78013;SDS011;67222;50.182;8.734;2023-08-21T09:19:38;9.82;;;7.00;;
78013;SDS011;67222;50.182;8.734;2023-08-21T09:22:07;7.93;;;6.35;;
78013;SDS011;67222;50.182;8.734;2023-08-21T09:24:34;8.25;;;6.43;;
78013;SDS011;67222;50.182;8.734;2023-08-21T09:27:00;8.93;;;6.50;;
78013;SDS011;67222;50.182;8.734;2023-08-21T09:29:26;11.05;;;6.70;;
78013;SDS011;67222;50.182;8.734;2023-08-21T09:31:52;10.93;;;6.75;;
78013;SDS011;67222;50.182;8.734;2023-08-21T09:34:21;10.27;;;6.78;;
78013;SDS011;67222;50.182;8.734;2023-08-21T09:36:46;7.65;;;5.88;;
78013;SDS011;67222;50.182;8.734;2023-08-21T09:39:19;8.52;;;6.25;;
78013;SDS011;67222;50.182;8.734;2023-08-21T09:41:54;8.48;;;5.65;;
78013;SDS011;67222;50.182;8.734;2023-08-21T09:44:20;8.70;;;6.18;;
78013;SDS011;67222;50.182;8.734;2023-08-21T09:46:48;8.13;;;5.93;;
78013;SDS011;67222;50.182;8.734;2023-08-21T09:51:40;8.15;;;5.53;;
78013;SDS011;67222;50.182;8.734;2023-08-21T09:54:05;8.97;;;6.63;;
78013;SDS011;67222;50.182;8.734;2023-08-21T09:56:31;9.38;;;6.35;;
78013;SDS011;67222;50.182;8.734;2023-08-21T09:58:56;8.48;;;5.88;;
78013;SDS011;67222;50.182;8.734;2023-08-21T10:01:22;9.77;;;6.20;;
78013;SDS011;67222;50.182;8.734;2023-08-21T10:03:49;7.57;;;5.72;;
78013;SDS011;67222;50.182;8.734;2023-08-21T10:06:15;7.90;;;5.97;;
78013;SDS011;67222;50.182;8.734;2023-08-21T10:08:43;6.95;;;5.38;;
78013;SDS011;67222;50.182;8.734;2023-08-21T10:11:11;6.53;;;5.18;;
78013;SDS011;67222;50.182;8.734;2023-08-21T10:13:37;6.80;;;4.95;;
78013;SDS011;67222;50.182;8.734;2023-08-21T10:16:06;6.53;;;5.00;;
78013;SDS011;67222;50.182;8.734;2023-08-21T10:18:33;8.25;;;4.90;;
78013;SDS011;67222;50.182;8.734;2023-08-21T10:21:16;7.15;;;4.35;;
78013;SDS011;67222;50.182;8.734;2023-08-21T10:23:46;6.50;;;4.05;;
78013;SDS011;67222;50.182;8.734;2023-08-21T10:26:12;5.82;;;4.05;;
78013;SDS011;67222;50.182;8.734;2023-08-21T10:28:51;6.13;;;4.20;;
78013;SDS011;67222;50.182;8.734;2023-08-21T10:33:50;4.63;;;3.22;;
78013;SDS011;67222;50.182;8.734;2023-08-21T10:36:17;7.23;;;3.40;;
78013;SDS011;67222;50.182;8.734;2023-08-21T10:39:04;4.45;;;3.10;;
78013;SDS011;67222;50.182;8.734;2023-08-21T10:41:29;4.85;;;3.15;;
78013;SDS011;67222;50.182;8.734;2023-08-21T10:43:55;6.55;;;3.38;;
78013;SDS011;67222;50.182;8.734;2023-08-21T10:46:20;4.03;;;3.15;;
78013;SDS011;67222;50.182;8.734;2023-08-21T10:48:46;4.73;;;3.63;;
78013;SDS011;67222;50.182;8.734;2023-08-21T10:51:11;4.33;;;2.70;;
78013;SDS011;67222;50.182;8.734;2023-08-21T10:53:37;5.32;;;3.20;;
78013;SDS011;67222;50.182;8.734;2023-08-21T10:56:05;4.07;;;2.97;;
78013;SDS011;67222;50.182;8.734;2023-08-21T10:58:49;6.15;;;3.10;;
78013;SDS011;67222;50.182;8.734;2023-08-21T11:01:16;5.18;;;3.13;;
78013;SDS011;67222;50.182;8.734;2023-08-21T11:03:44;7.43;;;3.47;;
78013;SDS011;67222;50.182;8.734;2023-08-21T11:06:11;4.50;;;3.08;;
78013;SDS011;67222;50.182;8.734;2023-08-21T11:08:36;4.53;;;2.93;;
78013;SDS011;67222;50.182;8.734;2023-08-21T11:11:02;6.87;;;3.83;;
78013;SDS011;67222;50.182;8.734;2023-08-21T11:13:30;4.22;;;3.38;;
78013;SDS011;67222;50.182;8.734;2023-08-21T11:15:59;5.13;;;3.70;;
78013;SDS011;67222;50.182;8.734;2023-08-21T11:18:29;5.15;;;3.58;;
78013;SDS011;67222;50.182;8.734;2023-08-21T11:21:03;5.03;;;3.50;;
78013;SDS011;67222;50.182;8.734;2023-08-21T11:23:33;3.75;;;3.10;;
78013;SDS011;67222;50.182;8.734;2023-08-21T11:26:00;4.85;;;3.55;;
78013;SDS011;67222;50.182;8.734;2023-08-21T11:28:26;5.60;;;3.45;;
78013;SDS011;67222;50.182;8.734;2023-08-21T11:30:54;4.00;;;3.33;;
78013;SDS011;67222;50.182;8.734;2023-08-21T11:33:20;4.30;;;3.53;;
78013;SDS011;67222;50.182;8.734;2023-08-21T11:35:46;4.43;;;3.40;;
78013;SDS011;67222;50.182;8.734;2023-08-21T11:38:18;5.47;;;3.20;;
78013;SDS011;67222;50.182;8.734;2023-08-21T11:40:58;5.53;;;3.08;;
78013;SDS011;67222;50.182;8.734;2023-08-21T11:46:26;4.22;;;2.92;;
78013;SDS011;67222;50.182;8.734;2023-08-21T11:48:52;6.83;;;3.80;;
78013;SDS011;67222;50.182;8.734;2023-08-21T11:51:17;4.60;;;3.13;;
78013;SDS011;67222;50.182;8.734;2023-08-21T11:53:42;5.33;;;2.93;;
78013;SDS011;67222;50.182;8.734;2023-08-21T11:56:12;4.33;;;3.00;;
78013;SDS011;67222;50.182;8.734;2023-08-21T11:58:39;4.78;;;3.10;;
78013;SDS011;67222;50.182;8.734;2023-08-21T12:01:05;4.95;;;3.50;;
78013;SDS011;67222;50.182;8.734;2023-08-21T12:03:35;5.25;;;3.15;;
78013;SDS011;67222;50.182;8.734;2023-08-21T12:06:05;5.32;;;3.08;;
78013;SDS011;67222;50.182;8.734;2023-08-21T12:08:34;5.35;;;3.63;;
78013;SDS011;67222;50.182;8.734;2023-08-21T12:10:59;3.60;;;3.00;;
78013;SDS011;67222;50.182;8.734;2023-08-21T12:13:25;5.30;;;3.30;;
78013;SDS011;67222;50.182;8.734;2023-08-21T12:15:50;4.23;;;3.37;;
78013;SDS011;67222;50.182;8.734;2023-08-21T12:18:15;4.87;;;3.37;;
78013;SDS011;67222;50.182;8.734;2023-08-21T12:20:41;6.50;;;3.13;;
78013;SDS011;67222;50.182;8.734;2023-08-21T12:23:06;5.63;;;3.00;;
78013;SDS011;67222;50.182;8.734;2023-08-21T12:25:31;6.57;;;3.13;;
78013;SDS011;67222;50.182;8.734;2023-08-21T12:27:57;5.97;;;3.07;;
78013;SDS011;67222;50.182;8.734;2023-08-21T12:30:22;4.50;;;2.85;;
78013;SDS011;67222;50.182;8.734;2023-08-21T12:32:47;4.82;;;3.00;;
78013;SDS011;67222;50.182;8.734;2023-08-21T12:35:13;4.97;;;3.13;;
78013;SDS011;67222;50.182;8.734;2023-08-21T12:37:38;4.77;;;3.47;;
78013;SDS011;67222;50.182;8.734;2023-08-21T12:40:03;4.80;;;3.30;;
78013;SDS011;67222;50.182;8.734;2023-08-21T12:42:29;4.88;;;3.30;;
78013;SDS011;67222;50.182;8.734;2023-08-21T12:44:54;7.30;;;3.03;;
78013;SDS011;67222;50.182;8.734;2023-08-21T12:47:20;3.90;;;2.83;;
78013;SDS011;67222;50.182;8.734;2023-08-21T12:49:45;4.57;;;2.80;;
78013;SDS011;67222;50.182;8.734;2023-08-21T12:52:10;4.40;;;2.93;;
78013;SDS011;67222;50.182;8.734;2023-08-21T12:54:37;3.90;;;2.67;;
78013;SDS011;67222;50.182;8.734;2023-08-21T12:57:03;8.32;;;3.25;;
78013;SDS011;67222;50.182;8.734;2023-08-21T12:59:28;4.13;;;2.63;;
78013;SDS011;67222;50.182;8.734;2023-08-21T13:01:54;4.87;;;3.00;;
78013;SDS011;67222;50.182;8.734;2023-08-21T13:04:19;4.30;;;3.00;;
78013;SDS011;67222;50.182;8.734;2023-08-21T13:06:44;5.20;;;3.20;;
78013;SDS011;67222;50.182;8.734;2023-08-21T13:09:09;5.77;;;2.73;;
78013;SDS011;67222;50.182;8.734;2023-08-21T13:11:35;4.53;;;3.17;;
78013;SDS011;67222;50.182;8.734;2023-08-21T13:14:00;5.50;;;3.47;;
78013;SDS011;67222;50.182;8.734;2023-08-21T13:16:25;4.97;;;3.30;;
78013;SDS011;67222;50.182;8.734;2023-08-21T13:18:50;4.33;;;3.17;;
78013;SDS011;67222;50.182;8.734;2023-08-21T13:21:16;5.53;;;3.00;;
78013;SDS011;67222;50.182;8.734;2023-08-21T13:23:41;3.73;;;2.70;;
78013;SDS011;67222;50.182;8.734;2023-08-21T13:26:06;4.10;;;3.13;;
78013;SDS011;67222;50.182;8.734;2023-08-21T13:28:32;4.40;;;3.20;;
78013;SDS011;67222;50.182;8.734;2023-08-21T13:30:59;3.75;;;2.80;;
78013;SDS011;67222;50.182;8.734;2023-08-21T13:33:24;4.22;;;2.92;;
78013;SDS011;67222;50.182;8.734;2023-08-21T13:35:50;3.60;;;2.53;;
78013;SDS011;67222;50.182;8.734;2023-08-21T13:38:16;3.78;;;2.72;;
78013;SDS011;67222;50.182;8.734;2023-08-21T13:40:41;4.75;;;2.90;;
78013;SDS011;67222;50.182;8.734;2023-08-21T13:43:07;5.22;;;2.95;;
78013;SDS011;67222;50.182;8.734;2023-08-21T13:45:34;4.75;;;2.95;;
78013;SDS011;67222;50.182;8.734;2023-08-21T13:48:00;4.18;;;2.60;;
78013;SDS011;67222;50.182;8.734;2023-08-21T13:50:25;4.83;;;3.20;;
78013;SDS011;67222;50.182;8.734;2023-08-21T13:52:50;4.77;;;2.80;;
78013;SDS011;67222;50.182;8.734;2023-08-21T13:55:16;4.03;;;3.20;;
78013;SDS011;67222;50.182;8.734;2023-08-21T13:57:41;5.43;;;2.70;;
78013;SDS011;67222;50.182;8.734;2023-08-21T14:00:07;4.93;;;2.92;;
78013;SDS011;67222;50.182;8.734;2023-08-21T14:02:37;3.90;;;2.50;;
78013;SDS011;67222;50.182;8.734;2023-08-21T14:05:03;3.70;;;2.50;;
78013;SDS011;67222;50.182;8.734;2023-08-21T14:07:29;5.85;;;2.60;;
78013;SDS011;67222;50.182;8.734;2023-08-21T14:09:55;3.22;;;2.60;;
78013;SDS011;67222;50.182;8.734;2023-08-21T14:12:20;6.13;;;3.07;;
78013;SDS011;67222;50.182;8.734;2023-08-21T14:14:46;4.03;;;3.00;;
78013;SDS011;67222;50.182;8.734;2023-08-21T14:17:11;4.30;;;2.70;;
78013;SDS011;67222;50.182;8.734;2023-08-21T14:19:36;4.00;;;3.10;;
78013;SDS011;67222;50.182;8.734;2023-08-21T14:22:02;4.47;;;2.70;;
78013;SDS011;67222;50.182;8.734;2023-08-21T14:24:28;4.03;;;2.40;;
78013;SDS011;67222;50.182;8.734;2023-08-21T14:26:53;5.20;;;2.78;;
78013;SDS011;67222;50.182;8.734;2023-08-21T14:29:18;4.53;;;2.67;;
78013;SDS011;67222;50.182;8.734;2023-08-21T14:31:44;4.33;;;2.70;;
78013;SDS011;67222;50.182;8.734;2023-08-21T14:34:11;6.70;;;3.40;;
78013;SDS011;67222;50.182;8.734;2023-08-21T14:36:37;3.28;;;2.58;;
78013;SDS011;67222;50.182;8.734;2023-08-21T14:39:02;3.77;;;2.87;;
78013;SDS011;67222;50.182;8.734;2023-08-21T14:41:28;4.63;;;2.78;;
78013;SDS011;67222;50.182;8.734;2023-08-21T14:43:54;3.95;;;2.40;;
78013;SDS011;67222;50.182;8.734;2023-08-21T14:46:19;3.83;;;2.43;;
78013;SDS011;67222;50.182;8.734;2023-08-21T14:48:44;4.53;;;2.47;;
78013;SDS011;67222;50.182;8.734;2023-08-21T14:51:09;3.90;;;2.70;;
78013;SDS011;67222;50.182;8.734;2023-08-21T14:53:35;5.03;;;2.40;;
78013;SDS011;67222;50.182;8.734;2023-08-21T14:56:00;2.93;;;2.17;;
78013;SDS011;67222;50.182;8.734;2023-08-21T14:58:25;3.47;;;2.40;;
78013;SDS011;67222;50.182;8.734;2023-08-21T15:00:53;5.00;;;2.40;;
78013;SDS011;67222;50.182;8.734;2023-08-21T15:03:19;4.80;;;2.60;;
78013;SDS011;67222;50.182;8.734;2023-08-21T15:05:44;4.40;;;2.50;;
78013;SDS011;67222;50.182;8.734;2023-08-21T15:08:10;3.67;;;2.70;;
78013;SDS011;67222;50.182;8.734;2023-08-21T15:10:35;5.13;;;2.37;;
78013;SDS011;67222;50.182;8.734;2023-08-21T15:13:00;4.23;;;2.83;;
78013;SDS011;67222;50.182;8.734;2023-08-21T15:15:26;5.28;;;3.00;;
78013;SDS011;67222;50.182;8.734;2023-08-21T15:17:51;3.77;;;2.57;;
78013;SDS011;67222;50.182;8.734;2023-08-21T15:20:17;3.83;;;2.80;;
78013;SDS011;67222;50.182;8.734;2023-08-21T15:22:42;4.83;;;2.60;;
78013;SDS011;67222;50.182;8.734;2023-08-21T15:25:08;4.50;;;2.33;;
78013;SDS011;67222;50.182;8.734;2023-08-21T15:27:33;4.30;;;2.58;;
78013;SDS011;67222;50.182;8.734;2023-08-21T15:29:59;3.28;;;2.72;;
78013;SDS011;67222;50.182;8.734;2023-08-21T15:32:24;4.63;;;2.40;;
78013;SDS011;67222;50.182;8.734;2023-08-21T15:34:49;4.30;;;2.77;;
78013;SDS011;67222;50.182;8.734;2023-08-21T15:37:15;4.53;;;2.50;;
78013;SDS011;67222;50.182;8.734;2023-08-21T15:39:40;3.43;;;2.57;;
78013;SDS011;67222;50.182;8.734;2023-08-21T15:42:05;3.67;;;2.83;;
78013;SDS011;67222;50.182;8.734;2023-08-21T15:44:30;3.03;;;2.23;;
78013;SDS011;67222;50.182;8.734;2023-08-21T15:46:56;4.35;;;2.72;;
78013;SDS011;67222;50.182;8.734;2023-08-21T15:49:21;4.68;;;2.55;;
78013;SDS011;67222;50.182;8.734;2023-08-21T15:51:47;3.03;;;2.00;;
78013;SDS011;67222;50.182;8.734;2023-08-21T15:54:13;3.20;;;1.90;;
78013;SDS011;67222;50.182;8.734;2023-08-21T15:56:42;3.58;;;2.00;;
78013;SDS011;67222;50.182;8.734;2023-08-21T15:59:08;3.17;;;1.75;;
78013;SDS011;67222;50.182;8.734;2023-08-21T16:01:34;3.83;;;1.80;;
78013;SDS011;67222;50.182;8.734;2023-08-21T16:03:59;3.47;;;2.33;;
78013;SDS011;67222;50.182;8.734;2023-08-21T16:06:24;3.47;;;1.90;;
78013;SDS011;67222;50.182;8.734;2023-08-21T16:08:49;3.27;;;1.83;;
78013;SDS011;67222;50.182;8.734;2023-08-21T16:11:15;5.33;;;2.07;;
78013;SDS011;67222;50.182;8.734;2023-08-21T16:13:40;3.83;;;1.80;;
78013;SDS011;67222;50.182;8.734;2023-08-21T16:16:05;3.00;;;1.98;;
78013;SDS011;67222;50.182;8.734;2023-08-21T16:18:31;3.63;;;1.70;;
78013;SDS011;67222;50.182;8.734;2023-08-21T16:20:57;3.80;;;2.00;;
78013;SDS011;67222;50.182;8.734;2023-08-21T16:23:22;4.93;;;1.97;;
78013;SDS011;67222;50.182;8.734;2023-08-21T16:25:47;2.97;;;1.90;;
78013;SDS011;67222;50.182;8.734;2023-08-21T16:28:13;2.60;;;1.90;;
78013;SDS011;67222;50.182;8.734;2023-08-21T16:30:38;2.70;;;1.80;;
78013;SDS011;67222;50.182;8.734;2023-08-21T16:33:03;3.10;;;1.80;;
78013;SDS011;67222;50.182;8.734;2023-08-21T16:35:29;3.00;;;1.80;;
78013;SDS011;67222;50.182;8.734;2023-08-21T16:37:54;4.30;;;2.55;;
78013;SDS011;67222;50.182;8.734;2023-08-21T16:40:20;3.78;;;2.65;;
78013;SDS011;67222;50.182;8.734;2023-08-21T16:42:48;3.35;;;2.20;;
78013;SDS011;67222;50.182;8.734;2023-08-21T16:45:13;3.50;;;2.22;;
78013;SDS011;67222;50.182;8.734;2023-08-21T16:47:40;4.47;;;2.25;;
78013;SDS011;67222;50.182;8.734;2023-08-21T16:50:06;4.60;;;2.35;;
78013;SDS011;67222;50.182;8.734;2023-08-21T16:52:32;4.55;;;2.38;;
78013;SDS011;67222;50.182;8.734;2023-08-21T16:54:57;5.23;;;2.03;;
78013;SDS011;67222;50.182;8.734;2023-08-21T16:57:22;4.55;;;2.30;;
78013;SDS011;67222;50.182;8.734;2023-08-21T16:59:48;5.38;;;2.58;;
78013;SDS011;67222;50.182;8.734;2023-08-21T17:02:13;5.10;;;2.27;;
78013;SDS011;67222;50.182;8.734;2023-08-21T17:04:39;3.63;;;2.20;;
78013;SDS011;67222;50.182;8.734;2023-08-21T17:07:05;4.20;;;2.42;;
78013;SDS011;67222;50.182;8.734;2023-08-21T17:09:30;2.60;;;1.90;;
78013;SDS011;67222;50.182;8.734;2023-08-21T17:11:55;4.18;;;2.00;;
78013;SDS011;67222;50.182;8.734;2023-08-21T17:14:20;3.03;;;1.93;;
78013;SDS011;67222;50.182;8.734;2023-08-21T17:16:46;5.00;;;2.40;;
78013;SDS011;67222;50.182;8.734;2023-08-21T17:19:12;3.30;;;2.10;;
78013;SDS011;67222;50.182;8.734;2023-08-21T17:21:37;4.05;;;2.40;;
78013;SDS011;67222;50.182;8.734;2023-08-21T17:24:03;5.10;;;2.38;;
78013;SDS011;67222;50.182;8.734;2023-08-21T17:26:28;4.95;;;2.28;;
78013;SDS011;67222;50.182;8.734;2023-08-21T17:28:54;4.22;;;2.22;;
78013;SDS011;67222;50.182;8.734;2023-08-21T17:31:19;3.55;;;2.60;;
78013;SDS011;67222;50.182;8.734;2023-08-21T17:33:45;4.63;;;2.23;;
78013;SDS011;67222;50.182;8.734;2023-08-21T17:36:10;5.97;;;2.70;;
78013;SDS011;67222;50.182;8.734;2023-08-21T17:38:35;8.23;;;2.80;;
78013;SDS011;67222;50.182;8.734;2023-08-21T17:41:01;4.10;;;2.83;;
78013;SDS011;67222;50.182;8.734;2023-08-21T17:43:27;4.55;;;2.53;;
78013;SDS011;67222;50.182;8.734;2023-08-21T17:45:52;7.73;;;2.50;;
78013;SDS011;67222;50.182;8.734;2023-08-21T17:48:17;4.23;;;2.50;;
78013;SDS011;67222;50.182;8.734;2023-08-21T17:50:42;5.43;;;2.97;;
78013;SDS011;67222;50.182;8.734;2023-08-21T17:53:09;4.35;;;2.70;;
78013;SDS011;67222;50.182;8.734;2023-08-21T17:55:35;6.97;;;3.30;;
78013;SDS011;67222;50.182;8.734;2023-08-21T17:58:02;4.80;;;2.72;;
78013;SDS011;67222;50.182;8.734;2023-08-21T18:02:55;3.90;;;2.33;;
78013;SDS011;67222;50.182;8.734;2023-08-21T18:05:20;3.83;;;2.47;;
78013;SDS011;67222;50.182;8.734;2023-08-21T18:07:45;3.63;;;2.60;;
78013;SDS011;67222;50.182;8.734;2023-08-21T18:10:11;6.88;;;2.70;;
78013;SDS011;67222;50.182;8.734;2023-08-21T18:12:36;3.47;;;2.38;;
78013;SDS011;67222;50.182;8.734;2023-08-21T18:15:02;4.83;;;2.80;;
78013;SDS011;67222;50.182;8.734;2023-08-21T18:17:28;4.25;;;2.35;;
78013;SDS011;67222;50.182;8.734;2023-08-21T18:19:53;4.43;;;2.60;;
78013;SDS011;67222;50.182;8.734;2023-08-21T18:22:19;3.75;;;2.97;;
78013;SDS011;67222;50.182;8.734;2023-08-21T18:24:45;6.03;;;2.70;;
78013;SDS011;67222;50.182;8.734;2023-08-21T18:27:11;6.57;;;2.80;;
78013;SDS011;67222;50.182;8.734;2023-08-21T18:29:36;5.03;;;2.70;;
78013;SDS011;67222;50.182;8.734;2023-08-21T18:32:03;3.67;;;2.80;;
78013;SDS011;67222;50.182;8.734;2023-08-21T18:34:28;4.00;;;2.67;;
78013;SDS011;67222;50.182;8.734;2023-08-21T18:36:54;5.63;;;3.07;;
78013;SDS011;67222;50.182;8.734;2023-08-21T18:39:19;4.53;;;3.00;;
78013;SDS011;67222;50.182;8.734;2023-08-21T18:41:44;4.83;;;3.40;;
78013;SDS011;67222;50.182;8.734;2023-08-21T18:44:09;4.27;;;2.93;;
78013;SDS011;67222;50.182;8.734;2023-08-21T18:46:35;3.20;;;2.43;;
78013;SDS011;67222;50.182;8.734;2023-08-21T18:49:00;5.72;;;2.85;;
78013;SDS011;67222;50.182;8.734;2023-08-21T18:51:25;6.03;;;3.10;;
78013;SDS011;67222;50.182;8.734;2023-08-21T18:53:51;4.60;;;2.80;;
78013;SDS011;67222;50.182;8.734;2023-08-21T18:56:16;4.43;;;2.87;;
78013;SDS011;67222;50.182;8.734;2023-08-21T18:58:41;4.37;;;2.70;;
78013;SDS011;67222;50.182;8.734;2023-08-21T19:01:07;4.95;;;2.83;;
78013;SDS011;67222;50.182;8.734;2023-08-21T19:03:32;4.53;;;2.75;;
78013;SDS011;67222;50.182;8.734;2023-08-21T19:05:58;7.20;;;2.90;;
78013;SDS011;67222;50.182;8.734;2023-08-21T19:08:24;5.35;;;3.10;;
78013;SDS011;67222;50.182;8.734;2023-08-21T19:10:49;3.92;;;2.92;;
78013;SDS011;67222;50.182;8.734;2023-08-21T19:13:15;5.80;;;3.20;;
78013;SDS011;67222;50.182;8.734;2023-08-21T19:15:40;4.60;;;3.40;;
78013;SDS011;67222;50.182;8.734;2023-08-21T19:18:06;5.87;;;3.63;;